sensor_id;sensor_type;location;lat;lon;timestamp;temperature;humidity
1694;DHT22;844;47.058;15.472;2022-08-21T00:00:38;21.50;99.90
1694;DHT22;844;47.058;15.472;2022-08-21T00:03:11;21.50;99.90
1694;DHT22;844;47.058;15.472;2022-08-21T00:05:44;21.50;99.90
1694;DHT22;844;47.058;15.472;2022-08-21T00:08:14;21.50;99.90
1694;DHT22;844;47.058;15.472;2022-08-21T00:10:43;21.50;99.90
1694;DHT22;844;47.058;15.472;2022-08-21T00:13:15;21.50;99.90
1694;DHT22;844;47.058;15.472;2022-08-21T00:15:47;21.50;99.90
1694;DHT22;844;47.058;15.472;2022-08-21T00:18:18;21.40;99.90
1694;DHT22;844;47.058;15.472;2022-08-21T00:20:47;21.40;99.90
1694;DHT22;844;47.058;15.472;2022-08-21T00:23:17;21.40;99.90
1694;DHT22;844;47.058;15.472;2022-08-21T00:25:46;21.40;99.90
1694;DHT22;844;47.058;15.472;2022-08-21T00:28:17;21.40;99.90
1694;DHT22;844;47.058;15.472;2022-08-21T00:30:46;21.30;99.90
1694;DHT22;844;47.058;15.472;2022-08-21T00:33:15;21.40;99.90
1694;DHT22;844;47.058;15.472;2022-08-21T00:35:45;21.40;99.90
1694;DHT22;844;47.058;15.472;2022-08-21T00:38:14;21.40;99.90
1694;DHT22;844;47.058;15.472;2022-08-21T00:40:46;21.40;99.90
1694;DHT22;844;47.058;15.472;2022-08-21T00:43:20;21.40;99.90
1694;DHT22;844;47.058;15.472;2022-08-21T00:45:51;21.40;99.90
1694;DHT22;844;47.058;15.472;2022-08-21T00:48:20;21.30;99.90
1694;DHT22;844;47.058;15.472;2022-08-21T00:50:53;21.20;99.90
1694;DHT22;844;47.058;15.472;2022-08-21T00:53:26;21.20;99.90
1694;DHT22;844;47.058;15.472;2022-08-21T00:55:56;21.20;99.90
1694;DHT22;844;47.058;15.472;2022-08-21T00:58:31;21.30;99.90
1694;DHT22;844;47.058;15.472;2022-08-21T01:01:05;21.20;99.90
1694;DHT22;844;47.058;15.472;2022-08-21T01:03:36;21.30;99.90
1694;DHT22;844;47.058;15.472;2022-08-21T01:06:11;21.20;99.90
1694;DHT22;844;47.058;15.472;2022-08-21T01:08:42;21.20;99.90
1694;DHT22;844;47.058;15.472;2022-08-21T01:11:14;21.20;99.90
1694;DHT22;844;47.058;15.472;2022-08-21T01:13:45;21.10;99.90
1694;DHT22;844;47.058;15.472;2022-08-21T01:16:19;21.10;99.90
1694;DHT22;844;47.058;15.472;2022-08-21T01:18:50;21.10;99.90
1694;DHT22;844;47.058;15.472;2022-08-21T01:21:23;21.10;99.90
1694;DHT22;844;47.058;15.472;2022-08-21T01:23:55;21.20;99.90
1694;DHT22;844;47.058;15.472;2022-08-21T01:26:29;21.10;99.90
1694;DHT22;844;47.058;15.472;2022-08-21T01:29:07;21.20;99.90
1694;DHT22;844;47.058;15.472;2022-08-21T01:31:38;21.10;99.90
1694;DHT22;844;47.058;15.472;2022-08-21T01:34:08;21.20;99.90
1694;DHT22;844;47.058;15.472;2022-08-21T01:36:39;21.20;99.90
1694;DHT22;844;47.058;15.472;2022-08-21T01:39:08;21.10;99.90
1694;DHT22;844;47.058;15.472;2022-08-21T01:41:38;21.20;99.90
1694;DHT22;844;47.058;15.472;2022-08-21T01:44:08;21.10;99.90
1694;DHT22;844;47.058;15.472;2022-08-21T01:46:37;21.00;99.90
1694;DHT22;844;47.058;15.472;2022-08-21T01:49:06;21.10;99.90
1694;DHT22;844;47.058;15.472;2022-08-21T01:51:36;21.20;99.90
1694;DHT22;844;47.058;15.472;2022-08-21T01:54:07;21.30;99.90
1694;DHT22;844;47.058;15.472;2022-08-21T01:56:38;21.20;99.90
1694;DHT22;844;47.058;15.472;2022-08-21T01:59:10;21.20;99.90
1694;DHT22;844;47.058;15.472;2022-08-21T02:01:39;21.10;99.90
1694;DHT22;844;47.058;15.472;2022-08-21T02:04:09;21.20;99.90
1694;DHT22;844;47.058;15.472;2022-08-21T02:06:40;21.20;99.90
1694;DHT22;844;47.058;15.472;2022-08-21T02:09:11;21.20;99.90
1694;DHT22;844;47.058;15.472;2022-08-21T02:11:43;21.20;99.90
1694;DHT22;844;47.058;15.472;2022-08-21T02:14:14;21.10;99.90
1694;DHT22;844;47.058;15.472;2022-08-21T02:16:59;21.10;99.90
1694;DHT22;844;47.058;15.472;2022-08-21T02:19:36;21.10;99.90
1694;DHT22;844;47.058;15.472;2022-08-21T02:22:07;21.10;99.90
1694;DHT22;844;47.058;15.472;2022-08-21T02:24:39;21.20;99.90
1694;DHT22;844;47.058;15.472;2022-08-21T02:27:21;21.10;99.90
1694;DHT22;844;47.058;15.472;2022-08-21T02:29:54;21.10;99.90
1694;DHT22;844;47.058;15.472;2022-08-21T02:32:24;21.10;99.90
1694;DHT22;844;47.058;15.472;2022-08-21T02:34:54;21.10;99.90
1694;DHT22;844;47.058;15.472;2022-08-21T02:37:23;21.10;99.90
1694;DHT22;844;47.058;15.472;2022-08-21T02:39:54;21.20;99.90
1694;DHT22;844;47.058;15.472;2022-08-21T02:42:24;21.20;99.90
1694;DHT22;844;47.058;15.472;2022-08-21T02:44:53;21.10;99.90
1694;DHT22;844;47.058;15.472;2022-08-21T02:47:22;21.00;99.90
1694;DHT22;844;47.058;15.472;2022-08-21T02:49:52;21.10;99.90
1694;DHT22;844;47.058;15.472;2022-08-21T02:52:22;21.10;99.90
1694;DHT22;844;47.058;15.472;2022-08-21T02:54:51;21.10;99.90
1694;DHT22;844;47.058;15.472;2022-08-21T02:57:22;21.00;99.90
1694;DHT22;844;47.058;15.472;2022-08-21T02:59:51;21.00;99.90
1694;DHT22;844;47.058;15.472;2022-08-21T03:02:21;21.00;99.90
1694;DHT22;844;47.058;15.472;2022-08-21T03:04:52;20.90;99.90
1694;DHT22;844;47.058;15.472;2022-08-21T03:07:22;20.90;99.90
1694;DHT22;844;47.058;15.472;2022-08-21T03:09:51;20.80;99.90
1694;DHT22;844;47.058;15.472;2022-08-21T03:12:24;20.80;99.90
1694;DHT22;844;47.058;15.472;2022-08-21T03:14:56;20.70;99.90
1694;DHT22;844;47.058;15.472;2022-08-21T03:17:25;20.80;99.90
1694;DHT22;844;47.058;15.472;2022-08-21T03:19:56;20.80;99.90
1694;DHT22;844;47.058;15.472;2022-08-21T03:22:26;20.90;99.90
1694;DHT22;844;47.058;15.472;2022-08-21T03:25:20;20.80;99.90
1694;DHT22;844;47.058;15.472;2022-08-21T03:28:11;20.90;99.90
1694;DHT22;844;47.058;15.472;2022-08-21T03:30:43;20.80;99.90
1694;DHT22;844;47.058;15.472;2022-08-21T03:33:13;20.80;99.90
1694;DHT22;844;47.058;15.472;2022-08-21T03:35:50;20.90;99.90
1694;DHT22;844;47.058;15.472;2022-08-21T03:38:23;20.80;99.90
1694;DHT22;844;47.058;15.472;2022-08-21T03:40:53;20.70;99.90
1694;DHT22;844;47.058;15.472;2022-08-21T03:43:24;20.70;99.90
1694;DHT22;844;47.058;15.472;2022-08-21T03:45:58;20.80;99.90
1694;DHT22;844;47.058;15.472;2022-08-21T03:48:27;20.80;99.90
1694;DHT22;844;47.058;15.472;2022-08-21T03:50:56;20.70;99.90
1694;DHT22;844;47.058;15.472;2022-08-21T03:53:25;20.70;99.90
1694;DHT22;844;47.058;15.472;2022-08-21T03:55:55;20.50;99.90
1694;DHT22;844;47.058;15.472;2022-08-21T03:58:27;20.50;99.90
1694;DHT22;844;47.058;15.472;2022-08-21T04:00:59;20.50;99.90
1694;DHT22;844;47.058;15.472;2022-08-21T04:03:29;20.50;99.90
1694;DHT22;844;47.058;15.472;2022-08-21T04:05:58;20.50;99.90
1694;DHT22;844;47.058;15.472;2022-08-21T04:08:27;20.50;99.90
1694;DHT22;844;47.058;15.472;2022-08-21T04:10:58;20.30;99.90
1694;DHT22;844;47.058;15.472;2022-08-21T04:13:29;20.40;99.90
1694;DHT22;844;47.058;15.472;2022-08-21T04:15:58;20.30;99.90
1694;DHT22;844;47.058;15.472;2022-08-21T04:18:28;20.30;99.90
1694;DHT22;844;47.058;15.472;2022-08-21T04:20:59;20.40;99.90
1694;DHT22;844;47.058;15.472;2022-08-21T04:23:31;20.30;99.90
1694;DHT22;844;47.058;15.472;2022-08-21T04:26:01;20.30;99.90
1694;DHT22;844;47.058;15.472;2022-08-21T04:28:35;20.40;99.90
1694;DHT22;844;47.058;15.472;2022-08-21T04:31:04;20.20;99.90
1694;DHT22;844;47.058;15.472;2022-08-21T04:33:34;20.20;99.90
1694;DHT22;844;47.058;15.472;2022-08-21T04:36:04;20.30;99.90
1694;DHT22;844;47.058;15.472;2022-08-21T04:38:34;20.40;99.90
1694;DHT22;844;47.058;15.472;2022-08-21T04:41:09;20.30;99.90
1694;DHT22;844;47.058;15.472;2022-08-21T04:43:41;20.30;99.90
1694;DHT22;844;47.058;15.472;2022-08-21T04:46:10;20.30;99.90
1694;DHT22;844;47.058;15.472;2022-08-21T04:48:40;20.30;99.90
1694;DHT22;844;47.058;15.472;2022-08-21T04:51:12;20.30;99.90
1694;DHT22;844;47.058;15.472;2022-08-21T04:53:47;20.50;99.90
1694;DHT22;844;47.058;15.472;2022-08-21T04:56:22;20.60;99.90
1694;DHT22;844;47.058;15.472;2022-08-21T04:58:57;20.60;99.90
1694;DHT22;844;47.058;15.472;2022-08-21T05:01:33;20.50;99.90
1694;DHT22;844;47.058;15.472;2022-08-21T05:04:04;20.40;99.90
1694;DHT22;844;47.058;15.472;2022-08-21T05:06:36;20.30;99.90
1694;DHT22;844;47.058;15.472;2022-08-21T05:09:08;20.40;99.90
1694;DHT22;844;47.058;15.472;2022-08-21T05:11:38;20.40;99.90
1694;DHT22;844;47.058;15.472;2022-08-21T05:14:09;20.40;99.90
1694;DHT22;844;47.058;15.472;2022-08-21T05:16:39;20.50;99.90
1694;DHT22;844;47.058;15.472;2022-08-21T05:19:09;20.40;99.90
1694;DHT22;844;47.058;15.472;2022-08-21T05:21:41;20.40;99.90
1694;DHT22;844;47.058;15.472;2022-08-21T05:24:14;20.40;99.90
1694;DHT22;844;47.058;15.472;2022-08-21T05:26:47;20.50;99.90
1694;DHT22;844;47.058;15.472;2022-08-21T05:29:18;20.60;99.90
1694;DHT22;844;47.058;15.472;2022-08-21T05:31:48;20.60;99.90
1694;DHT22;844;47.058;15.472;2022-08-21T05:34:20;20.50;99.90
1694;DHT22;844;47.058;15.472;2022-08-21T05:36:50;20.60;99.90
1694;DHT22;844;47.058;15.472;2022-08-21T05:39:19;20.70;99.90
1694;DHT22;844;47.058;15.472;2022-08-21T05:41:48;20.70;99.90
1694;DHT22;844;47.058;15.472;2022-08-21T05:44:20;20.70;99.90
1694;DHT22;844;47.058;15.472;2022-08-21T05:46:49;20.70;99.90
1694;DHT22;844;47.058;15.472;2022-08-21T05:49:18;20.70;99.90
1694;DHT22;844;47.058;15.472;2022-08-21T05:51:47;20.80;99.90
1694;DHT22;844;47.058;15.472;2022-08-21T05:54:17;20.90;99.90
1694;DHT22;844;47.058;15.472;2022-08-21T05:56:46;20.90;99.90
1694;DHT22;844;47.058;15.472;2022-08-21T05:59:15;21.00;99.90
1694;DHT22;844;47.058;15.472;2022-08-21T06:01:46;21.00;99.90
1694;DHT22;844;47.058;15.472;2022-08-21T06:04:15;21.10;99.90
1694;DHT22;844;47.058;15.472;2022-08-21T06:06:44;21.10;99.90
1694;DHT22;844;47.058;15.472;2022-08-21T06:09:14;21.20;99.90
1694;DHT22;844;47.058;15.472;2022-08-21T06:11:43;21.20;99.90
1694;DHT22;844;47.058;15.472;2022-08-21T06:14:14;21.20;99.90
1694;DHT22;844;47.058;15.472;2022-08-21T06:16:43;21.20;99.90
1694;DHT22;844;47.058;15.472;2022-08-21T06:19:14;21.30;99.90
1694;DHT22;844;47.058;15.472;2022-08-21T06:21:43;21.30;99.90
1694;DHT22;844;47.058;15.472;2022-08-21T06:24:13;21.30;99.90
1694;DHT22;844;47.058;15.472;2022-08-21T06:26:42;21.30;99.90
1694;DHT22;844;47.058;15.472;2022-08-21T06:29:12;21.30;99.90
1694;DHT22;844;47.058;15.472;2022-08-21T06:31:44;21.40;99.90
1694;DHT22;844;47.058;15.472;2022-08-21T06:34:16;21.40;99.90
1694;DHT22;844;47.058;15.472;2022-08-21T06:36:45;21.40;99.90
1694;DHT22;844;47.058;15.472;2022-08-21T06:39:14;21.40;99.90
1694;DHT22;844;47.058;15.472;2022-08-21T06:41:57;21.50;99.90
1694;DHT22;844;47.058;15.472;2022-08-21T06:44:27;21.40;99.90
1694;DHT22;844;47.058;15.472;2022-08-21T06:46:56;21.50;99.90
1694;DHT22;844;47.058;15.472;2022-08-21T06:49:26;21.50;99.90
1694;DHT22;844;47.058;15.472;2022-08-21T06:51:56;21.50;99.90
1694;DHT22;844;47.058;15.472;2022-08-21T06:54:25;21.50;99.90
1694;DHT22;844;47.058;15.472;2022-08-21T06:56:54;21.60;99.90
1694;DHT22;844;47.058;15.472;2022-08-21T06:59:23;21.60;99.90
1694;DHT22;844;47.058;15.472;2022-08-21T07:01:52;21.60;99.90
1694;DHT22;844;47.058;15.472;2022-08-21T07:04:21;21.60;99.90
1694;DHT22;844;47.058;15.472;2022-08-21T07:06:52;21.60;99.90
1694;DHT22;844;47.058;15.472;2022-08-21T07:09:21;21.70;99.90
1694;DHT22;844;47.058;15.472;2022-08-21T07:11:53;21.70;99.90
1694;DHT22;844;47.058;15.472;2022-08-21T07:14:24;21.70;99.90
1694;DHT22;844;47.058;15.472;2022-08-21T07:16:53;21.70;99.90
1694;DHT22;844;47.058;15.472;2022-08-21T07:19:23;21.80;99.90
1694;DHT22;844;47.058;15.472;2022-08-21T07:21:58;21.80;99.90
1694;DHT22;844;47.058;15.472;2022-08-21T07:24:29;21.80;99.90
1694;DHT22;844;47.058;15.472;2022-08-21T07:26:59;21.80;99.90
1694;DHT22;844;47.058;15.472;2022-08-21T07:29:27;21.80;99.90
1694;DHT22;844;47.058;15.472;2022-08-21T07:31:58;21.80;99.90
1694;DHT22;844;47.058;15.472;2022-08-21T07:34:27;21.80;99.90
1694;DHT22;844;47.058;15.472;2022-08-21T07:36:57;21.80;99.90
1694;DHT22;844;47.058;15.472;2022-08-21T07:39:37;21.80;99.90
1694;DHT22;844;47.058;15.472;2022-08-21T07:42:06;21.80;99.90
1694;DHT22;844;47.058;15.472;2022-08-21T07:44:35;21.80;99.90
1694;DHT22;844;47.058;15.472;2022-08-21T07:47:04;21.80;99.90
1694;DHT22;844;47.058;15.472;2022-08-21T07:49:34;21.80;99.90
1694;DHT22;844;47.058;15.472;2022-08-21T07:52:05;21.80;99.90
1694;DHT22;844;47.058;15.472;2022-08-21T07:54:34;21.90;99.90
1694;DHT22;844;47.058;15.472;2022-08-21T07:57:04;21.90;99.90
1694;DHT22;844;47.058;15.472;2022-08-21T07:59:33;21.90;99.90
1694;DHT22;844;47.058;15.472;2022-08-21T08:02:03;21.90;99.90
1694;DHT22;844;47.058;15.472;2022-08-21T08:04:32;21.90;99.90
1694;DHT22;844;47.058;15.472;2022-08-21T08:07:03;22.00;99.90
1694;DHT22;844;47.058;15.472;2022-08-21T08:09:32;21.90;99.90
1694;DHT22;844;47.058;15.472;2022-08-21T08:12:04;21.90;99.90
1694;DHT22;844;47.058;15.472;2022-08-21T08:14:33;22.00;99.90
1694;DHT22;844;47.058;15.472;2022-08-21T08:17:02;22.00;99.90
1694;DHT22;844;47.058;15.472;2022-08-21T08:19:32;22.00;99.90
1694;DHT22;844;47.058;15.472;2022-08-21T08:22:01;22.10;99.90
1694;DHT22;844;47.058;15.472;2022-08-21T08:24:31;22.10;99.90
1694;DHT22;844;47.058;15.472;2022-08-21T08:27:00;22.10;99.90
1694;DHT22;844;47.058;15.472;2022-08-21T08:29:32;22.20;99.90
1694;DHT22;844;47.058;15.472;2022-08-21T08:32:01;22.20;99.90
1694;DHT22;844;47.058;15.472;2022-08-21T08:34:31;22.20;99.90
1694;DHT22;844;47.058;15.472;2022-08-21T08:37:00;22.30;99.90
1694;DHT22;844;47.058;15.472;2022-08-21T08:39:34;22.30;99.90
1694;DHT22;844;47.058;15.472;2022-08-21T08:42:08;22.30;99.90
1694;DHT22;844;47.058;15.472;2022-08-21T08:45:02;22.30;99.90
1694;DHT22;844;47.058;15.472;2022-08-21T08:47:36;22.30;99.90
1694;DHT22;844;47.058;15.472;2022-08-21T08:50:10;22.40;99.90
1694;DHT22;844;47.058;15.472;2022-08-21T08:52:45;22.40;99.90
1694;DHT22;844;47.058;15.472;2022-08-21T08:55:23;22.30;99.90
1694;DHT22;844;47.058;15.472;2022-08-21T08:57:55;22.40;99.90
1694;DHT22;844;47.058;15.472;2022-08-21T09:00:25;22.40;99.90
1694;DHT22;844;47.058;15.472;2022-08-21T09:02:56;22.30;99.90
1694;DHT22;844;47.058;15.472;2022-08-21T09:05:29;22.30;99.90
1694;DHT22;844;47.058;15.472;2022-08-21T09:08:19;22.20;99.90
1694;DHT22;844;47.058;15.472;2022-08-21T09:11:02;22.20;99.90
1694;DHT22;844;47.058;15.472;2022-08-21T09:13:42;22.30;99.90
1694;DHT22;844;47.058;15.472;2022-08-21T09:16:19;22.30;99.90
1694;DHT22;844;47.058;15.472;2022-08-21T09:19:02;22.40;99.90
1694;DHT22;844;47.058;15.472;2022-08-21T09:21:40;22.40;99.90
1694;DHT22;844;47.058;15.472;2022-08-21T09:24:29;22.40;99.90
1694;DHT22;844;47.058;15.472;2022-08-21T09:27:07;22.50;99.90
1694;DHT22;844;47.058;15.472;2022-08-21T09:29:39;22.50;99.90
1694;DHT22;844;47.058;15.472;2022-08-21T09:32:13;22.50;99.90
1694;DHT22;844;47.058;15.472;2022-08-21T09:34:56;22.50;99.90
1694;DHT22;844;47.058;15.472;2022-08-21T09:37:28;22.50;99.90
1694;DHT22;844;47.058;15.472;2022-08-21T09:39:58;22.60;99.90
1694;DHT22;844;47.058;15.472;2022-08-21T09:42:31;22.60;99.90
1694;DHT22;844;47.058;15.472;2022-08-21T09:45:12;22.60;99.90
1694;DHT22;844;47.058;15.472;2022-08-21T09:47:42;22.60;99.90
1694;DHT22;844;47.058;15.472;2022-08-21T09:50:15;22.50;99.90
1694;DHT22;844;47.058;15.472;2022-08-21T09:52:49;22.50;99.90
1694;DHT22;844;47.058;15.472;2022-08-21T09:55:30;22.50;99.90
1694;DHT22;844;47.058;15.472;2022-08-21T09:58:20;22.50;99.90
1694;DHT22;844;47.058;15.472;2022-08-21T10:00:58;22.50;99.90
1694;DHT22;844;47.058;15.472;2022-08-21T10:03:29;22.50;99.90
1694;DHT22;844;47.058;15.472;2022-08-21T10:06:00;22.60;99.90
1694;DHT22;844;47.058;15.472;2022-08-21T10:08:38;22.60;99.90
1694;DHT22;844;47.058;15.472;2022-08-21T10:11:14;22.60;99.90
1694;DHT22;844;47.058;15.472;2022-08-21T10:13:55;22.70;99.90
1694;DHT22;844;47.058;15.472;2022-08-21T10:16:37;22.80;99.90
1694;DHT22;844;47.058;15.472;2022-08-21T10:19:17;23.00;99.90
1694;DHT22;844;47.058;15.472;2022-08-21T10:22:00;23.10;99.90
1694;DHT22;844;47.058;15.472;2022-08-21T10:24:39;23.30;99.90
1694;DHT22;844;47.058;15.472;2022-08-21T10:27:20;23.40;99.90
1694;DHT22;844;47.058;15.472;2022-08-21T10:29:57;23.50;99.90
1694;DHT22;844;47.058;15.472;2022-08-21T10:32:42;23.80;99.90
1694;DHT22;844;47.058;15.472;2022-08-21T10:35:23;24.00;99.90
1694;DHT22;844;47.058;15.472;2022-08-21T10:38:08;24.30;99.90
1694;DHT22;844;47.058;15.472;2022-08-21T10:41:31;24.20;99.90
1694;DHT22;844;47.058;15.472;2022-08-21T10:44:17;24.20;99.90
1694;DHT22;844;47.058;15.472;2022-08-21T10:46:57;24.10;99.90
1694;DHT22;844;47.058;15.472;2022-08-21T10:49:39;24.00;99.90
1694;DHT22;844;47.058;15.472;2022-08-21T10:52:27;24.00;99.90
1694;DHT22;844;47.058;15.472;2022-08-21T10:55:10;24.00;99.90
1694;DHT22;844;47.058;15.472;2022-08-21T10:57:46;24.00;99.90
1694;DHT22;844;47.058;15.472;2022-08-21T11:00:20;24.00;99.90
1694;DHT22;844;47.058;15.472;2022-08-21T11:02:57;24.10;99.90
1694;DHT22;844;47.058;15.472;2022-08-21T11:05:33;24.30;99.90
1694;DHT22;844;47.058;15.472;2022-08-21T11:08:08;24.40;99.90
1694;DHT22;844;47.058;15.472;2022-08-21T11:10:46;24.50;99.90
1694;DHT22;844;47.058;15.472;2022-08-21T11:13:33;24.50;99.90
1694;DHT22;844;47.058;15.472;2022-08-21T11:16:12;24.50;99.90
1694;DHT22;844;47.058;15.472;2022-08-21T11:18:52;24.70;99.90
1694;DHT22;844;47.058;15.472;2022-08-21T11:21:35;24.70;99.90
1694;DHT22;844;47.058;15.472;2022-08-21T11:24:17;24.80;99.90
1694;DHT22;844;47.058;15.472;2022-08-21T11:26:59;25.00;99.90
1694;DHT22;844;47.058;15.472;2022-08-21T11:29:35;25.00;99.90
1694;DHT22;844;47.058;15.472;2022-08-21T11:32:28;25.30;99.90
1694;DHT22;844;47.058;15.472;2022-08-21T11:35:13;25.30;99.90
1694;DHT22;844;47.058;15.472;2022-08-21T11:37:57;25.20;99.90
1694;DHT22;844;47.058;15.472;2022-08-21T11:40:44;25.10;99.90
1694;DHT22;844;47.058;15.472;2022-08-21T11:43:31;25.00;99.90
1694;DHT22;844;47.058;15.472;2022-08-21T11:46:23;25.00;99.90
1694;DHT22;844;47.058;15.472;2022-08-21T11:49:08;25.10;99.90
1694;DHT22;844;47.058;15.472;2022-08-21T11:51:52;25.30;99.90
1694;DHT22;844;47.058;15.472;2022-08-21T11:54:28;25.20;99.90
1694;DHT22;844;47.058;15.472;2022-08-21T11:57:07;25.20;99.90
1694;DHT22;844;47.058;15.472;2022-08-21T11:59:48;25.30;99.90
1694;DHT22;844;47.058;15.472;2022-08-21T12:02:23;25.30;99.90
1694;DHT22;844;47.058;15.472;2022-08-21T12:04:59;25.30;99.90
1694;DHT22;844;47.058;15.472;2022-08-21T12:07:38;25.30;99.90
1694;DHT22;844;47.058;15.472;2022-08-21T12:10:11;25.30;99.90
1694;DHT22;844;47.058;15.472;2022-08-21T12:12:44;25.30;99.90
1694;DHT22;844;47.058;15.472;2022-08-21T12:15:24;25.30;99.90
1694;DHT22;844;47.058;15.472;2022-08-21T12:17:58;25.40;99.90
1694;DHT22;844;47.058;15.472;2022-08-21T12:20:41;25.40;99.90
1694;DHT22;844;47.058;15.472;2022-08-21T12:23:26;25.40;99.90
1694;DHT22;844;47.058;15.472;2022-08-21T12:26:03;25.40;99.90
1694;DHT22;844;47.058;15.472;2022-08-21T12:28:49;25.40;99.90
1694;DHT22;844;47.058;15.472;2022-08-21T12:31:21;25.30;99.90
1694;DHT22;844;47.058;15.472;2022-08-21T12:33:59;25.30;99.90
1694;DHT22;844;47.058;15.472;2022-08-21T12:36:41;25.20;99.90
1694;DHT22;844;47.058;15.472;2022-08-21T12:39:15;25.10;99.90
1694;DHT22;844;47.058;15.472;2022-08-21T12:41:51;25.20;99.90
1694;DHT22;844;47.058;15.472;2022-08-21T12:44:35;25.30;99.90
1694;DHT22;844;47.058;15.472;2022-08-21T12:47:15;25.10;99.90
1694;DHT22;844;47.058;15.472;2022-08-21T12:49:54;25.10;99.90
1694;DHT22;844;47.058;15.472;2022-08-21T12:52:30;25.10;99.90
1694;DHT22;844;47.058;15.472;2022-08-21T12:55:15;25.10;99.90
1694;DHT22;844;47.058;15.472;2022-08-21T12:57:45;25.20;99.90
1694;DHT22;844;47.058;15.472;2022-08-21T13:00:21;25.20;99.90
1694;DHT22;844;47.058;15.472;2022-08-21T13:02:52;25.20;99.90
1694;DHT22;844;47.058;15.472;2022-08-21T13:05:29;25.10;99.90
1694;DHT22;844;47.058;15.472;2022-08-21T13:08:04;25.00;99.90
1694;DHT22;844;47.058;15.472;2022-08-21T13:10:37;25.00;99.90
1694;DHT22;844;47.058;15.472;2022-08-21T13:13:12;25.00;99.90
1694;DHT22;844;47.058;15.472;2022-08-21T13:15:57;25.00;99.90
1694;DHT22;844;47.058;15.472;2022-08-21T13:18:29;25.10;99.90
1694;DHT22;844;47.058;15.472;2022-08-21T13:21:07;25.00;99.90
1694;DHT22;844;47.058;15.472;2022-08-21T13:23:39;25.20;99.90
1694;DHT22;844;47.058;15.472;2022-08-21T13:26:15;25.10;99.90
1694;DHT22;844;47.058;15.472;2022-08-21T13:28:46;25.10;99.90
1694;DHT22;844;47.058;15.472;2022-08-21T13:31:24;25.00;99.90
1694;DHT22;844;47.058;15.472;2022-08-21T13:33:57;25.00;99.90
1694;DHT22;844;47.058;15.472;2022-08-21T13:36:32;25.00;99.90
1694;DHT22;844;47.058;15.472;2022-08-21T13:39:04;25.00;99.90
1694;DHT22;844;47.058;15.472;2022-08-21T13:41:39;24.80;99.90
1694;DHT22;844;47.058;15.472;2022-08-21T13:44:17;24.80;99.90
1694;DHT22;844;47.058;15.472;2022-08-21T13:46:49;24.90;99.90
1694;DHT22;844;47.058;15.472;2022-08-21T13:49:32;24.80;99.90
1694;DHT22;844;47.058;15.472;2022-08-21T13:52:04;24.70;99.90
1694;DHT22;844;47.058;15.472;2022-08-21T13:54:43;24.60;99.90
1694;DHT22;844;47.058;15.472;2022-08-21T13:57:19;24.60;99.90
1694;DHT22;844;47.058;15.472;2022-08-21T13:59:52;24.60;99.90
1694;DHT22;844;47.058;15.472;2022-08-21T14:02:23;24.60;99.90
1694;DHT22;844;47.058;15.472;2022-08-21T14:04:57;24.60;99.90
1694;DHT22;844;47.058;15.472;2022-08-21T14:07:30;24.60;99.90
1694;DHT22;844;47.058;15.472;2022-08-21T14:10:02;24.60;99.90
1694;DHT22;844;47.058;15.472;2022-08-21T14:12:40;24.50;99.90
1694;DHT22;844;47.058;15.472;2022-08-21T14:15:18;24.50;99.90
1694;DHT22;844;47.058;15.472;2022-08-21T14:17:52;24.60;99.90
1694;DHT22;844;47.058;15.472;2022-08-21T14:20:29;24.50;99.90
1694;DHT22;844;47.058;15.472;2022-08-21T14:23:00;24.60;99.90
1694;DHT22;844;47.058;15.472;2022-08-21T14:25:38;24.60;99.90
1694;DHT22;844;47.058;15.472;2022-08-21T14:28:31;24.50;99.90
1694;DHT22;844;47.058;15.472;2022-08-21T14:31:13;24.50;99.90
1694;DHT22;844;47.058;15.472;2022-08-21T14:33:44;24.50;99.90
1694;DHT22;844;47.058;15.472;2022-08-21T14:36:13;24.50;99.90
1694;DHT22;844;47.058;15.472;2022-08-21T14:38:43;24.50;99.90
1694;DHT22;844;47.058;15.472;2022-08-21T14:41:18;24.40;99.90
1694;DHT22;844;47.058;15.472;2022-08-21T14:43:56;24.40;99.90
1694;DHT22;844;47.058;15.472;2022-08-21T14:46:36;24.50;99.90
1694;DHT22;844;47.058;15.472;2022-08-21T14:49:23;24.50;99.90
1694;DHT22;844;47.058;15.472;2022-08-21T14:51:56;24.50;99.90
1694;DHT22;844;47.058;15.472;2022-08-21T14:54:27;24.50;99.90
1694;DHT22;844;47.058;15.472;2022-08-21T14:57:00;24.60;99.90
1694;DHT22;844;47.058;15.472;2022-08-21T14:59:33;24.50;99.90
1694;DHT22;844;47.058;15.472;2022-08-21T15:02:05;24.60;99.90
1694;DHT22;844;47.058;15.472;2022-08-21T15:04:35;24.60;99.90
1694;DHT22;844;47.058;15.472;2022-08-21T15:07:04;24.60;99.90
1694;DHT22;844;47.058;15.472;2022-08-21T15:09:34;24.70;99.90
1694;DHT22;844;47.058;15.472;2022-08-21T15:12:04;24.70;99.90
1694;DHT22;844;47.058;15.472;2022-08-21T15:14:38;24.70;99.90
1694;DHT22;844;47.058;15.472;2022-08-21T15:17:10;24.80;99.90
1694;DHT22;844;47.058;15.472;2022-08-21T15:19:50;24.80;99.90
1694;DHT22;844;47.058;15.472;2022-08-21T15:22:19;24.70;99.90
1694;DHT22;844;47.058;15.472;2022-08-21T15:24:54;24.60;99.90
1694;DHT22;844;47.058;15.472;2022-08-21T15:27:23;24.50;99.90
1694;DHT22;844;47.058;15.472;2022-08-21T15:32:25;24.70;99.90
1694;DHT22;844;47.058;15.472;2022-08-21T15:34:57;24.80;99.90
1694;DHT22;844;47.058;15.472;2022-08-21T15:37:26;24.70;99.90
1694;DHT22;844;47.058;15.472;2022-08-21T15:39:56;24.60;99.90
1694;DHT22;844;47.058;15.472;2022-08-21T15:42:27;24.60;99.90
1694;DHT22;844;47.058;15.472;2022-08-21T15:44:59;24.60;99.90
1694;DHT22;844;47.058;15.472;2022-08-21T15:47:31;24.50;99.90
1694;DHT22;844;47.058;15.472;2022-08-21T15:50:02;24.40;99.90
1694;DHT22;844;47.058;15.472;2022-08-21T15:55:03;24.40;99.90
1694;DHT22;844;47.058;15.472;2022-08-21T15:57:34;24.50;99.90
1694;DHT22;844;47.058;15.472;2022-08-21T16:00:12;24.30;99.90
1694;DHT22;844;47.058;15.472;2022-08-21T16:02:45;24.20;99.90
1694;DHT22;844;47.058;15.472;2022-08-21T16:05:17;24.10;99.90
1694;DHT22;844;47.058;15.472;2022-08-21T16:07:47;24.10;99.90
1694;DHT22;844;47.058;15.472;2022-08-21T16:10:22;24.10;99.90
1694;DHT22;844;47.058;15.472;2022-08-21T16:13:01;24.10;99.90
1694;DHT22;844;47.058;15.472;2022-08-21T16:15:34;24.00;99.90
1694;DHT22;844;47.058;15.472;2022-08-21T16:18:04;23.90;99.90
1694;DHT22;844;47.058;15.472;2022-08-21T16:20:34;23.90;99.90
1694;DHT22;844;47.058;15.472;2022-08-21T16:23:04;23.90;99.90
1694;DHT22;844;47.058;15.472;2022-08-21T16:25:35;23.80;99.90
1694;DHT22;844;47.058;15.472;2022-08-21T16:28:08;23.90;99.90
1694;DHT22;844;47.058;15.472;2022-08-21T16:30:43;23.80;99.90
1694;DHT22;844;47.058;15.472;2022-08-21T16:33:24;23.80;99.90
1694;DHT22;844;47.058;15.472;2022-08-21T16:35:58;23.80;99.90
1694;DHT22;844;47.058;15.472;2022-08-21T16:38:28;23.70;99.90
1694;DHT22;844;47.058;15.472;2022-08-21T16:41:02;23.80;99.90
1694;DHT22;844;47.058;15.472;2022-08-21T16:43:33;23.70;99.90
1694;DHT22;844;47.058;15.472;2022-08-21T16:46:04;23.70;99.90
1694;DHT22;844;47.058;15.472;2022-08-21T16:48:34;23.70;99.90